Time;durP1;ratioP1;P1;durP2;ratioP2;P2;SDS_P1;SDS_P2;PMS_P1;PMS_P2;Temp;Humidity;BMP_temperature;BMP_pressure;BME280_temperature;BME280_humidity;BME280_pressure;Samples;Min_cycle;Max_cycle;Signal;HPM_P1;HPM_P2
2021/01/01 00:01:37;;;;;;;66.03;38.70;;;;;;;2.88;79.76;99931.84;5008334;28;20518;-53
2021/01/01 00:04:05;;;;;;;70.70;41.85;;;;;;;2.75;79.56;99931.50;5000651;28;20049;-58
2021/01/01 00:06:32;;;;;;;79.53;43.53;;;;;;;2.64;79.90;99933.63;5002055;28;20156;-59
2021/01/01 00:08:59;;;;;;;83.82;50.25;;;;;;;2.61;80.03;99931.16;5012958;28;20058;-58
2021/01/01 00:11:26;;;;;;;94.63;53.72;;;;;;;2.63;79.28;99925.00;5002522;28;20660;-57
2021/01/01 00:13:53;;;;;;;90.22;52.25;;;;;;;2.56;79.01;99925.28;5005597;28;20142;-56
2021/01/01 00:16:20;;;;;;;96.78;54.13;;;;;;;2.63;79.17;99926.75;4992632;28;20057;-58
2021/01/01 00:18:46;;;;;;;86.60;47.55;;;;;;;2.54;79.28;99925.34;5011075;28;20058;-57
2021/01/01 00:21:14;;;;;;;96.78;51.92;;;;;;;2.57;78.50;99926.97;4999377;28;20487;-59
2021/01/01 00:23:40;;;;;;;93.13;52.05;;;;;;;2.46;78.58;99917.81;5008356;28;20517;-59
2021/01/01 00:26:11;;;;;;;96.85;50.97;;;;;;;2.47;78.42;99924.72;5004126;28;20054;-55
2021/01/01 00:28:43;;;;;;;99.05;52.83;;;;;;;2.54;78.53;99922.75;5004648;28;20046;-61
2021/01/01 00:31:14;;;;;;;96.90;53.40;;;;;;;2.53;78.33;99921.91;5003872;28;20053;-57
2021/01/01 00:33:40;;;;;;;93.72;52.63;;;;;;;2.53;78.42;99921.91;5001129;28;20042;-58
2021/01/01 00:36:07;;;;;;;96.53;53.22;;;;;;;2.53;77.91;99921.91;5005729;28;20077;-52
2021/01/01 00:38:35;;;;;;;94.18;53.45;;;;;;;2.53;77.80;99915.84;5005080;28;20046;-58
2021/01/01 00:41:06;;;;;;;97.93;52.50;;;;;;;2.45;78.50;99926.53;5004974;28;20050;-57
2021/01/01 00:43:33;;;;;;;103.50;55.45;;;;;;;2.56;77.69;99930.47;5008330;28;20506;-53
2021/01/01 00:46:00;;;;;;;99.40;55.22;;;;;;;2.53;77.20;99932.28;5004164;28;20065;-56
2021/01/01 00:48:27;;;;;;;111.28;59.90;;;;;;;2.48;77.48;99933.38;5007748;28;20077;-57
2021/01/01 00:50:54;;;;;;;116.53;59.88;;;;;;;2.58;77.42;99936.47;5003778;28;20647;-56
2021/01/01 00:53:39;;;;;;;118.13;60.00;;;;;;;2.58;77.71;99928.69;5003329;28;20137;-59
2021/01/01 00:56:05;;;;;;;111.63;59.60;;;;;;;2.47;77.92;99931.66;5005814;28;20061;-53
2021/01/01 00:58:32;;;;;;;104.95;57.55;;;;;;;2.48;78.13;99936.81;5001149;28;20054;-52
2021/01/01 01:00:59;;;;;;;104.78;56.10;;;;;;;2.42;77.89;99931.81;5010379;28;20157;-59
2021/01/01 01:03:25;;;;;;;109.53;57.47;;;;;;;2.45;77.56;99936.06;5002853;28;20080;-55
2021/01/01 01:05:52;;;;;;;109.40;53.50;;;;;;;2.32;78.01;99930.47;5004652;28;20050;-56
2021/01/01 01:08:19;;;;;;;98.30;51.45;;;;;;;2.30;76.91;99937.50;4985318;28;20049;-58
2021/01/01 01:10:45;;;;;;;87.15;46.80;;;;;;;2.32;77.44;99934.81;5004100;28;20053;-57
2021/01/01 01:13:12;;;;;;;85.30;45.65;;;;;;;2.21;77.70;99930.03;5002551;28;20068;-54
2021/01/01 01:15:39;;;;;;;86.40;46.20;;;;;;;2.21;77.68;99923.09;4987121;28;20030;-55
2021/01/01 01:18:05;;;;;;;89.45;44.40;;;;;;;2.21;78.11;99924.84;5003274;28;20049;-52
2021/01/01 01:20:33;;;;;;;82.93;44.63;;;;;;;2.22;78.14;99922.16;4990910;28;20065;-55
2021/01/01 01:22:59;;;;;;;82.68;45.38;;;;;;;2.30;78.01;99921.91;5000572;28;20073;-53
2021/01/01 01:25:26;;;;;;;82.70;43.80;;;;;;;2.29;77.61;99922.78;5008515;28;20057;-55
2021/01/01 01:27:53;;;;;;;82.30;42.67;;;;;;;2.26;78.24;99925.50;4997257;28;20056;-58
2021/01/01 01:30:20;;;;;;;85.00;45.10;;;;;;;2.32;77.99;99932.22;4999473;28;20222;-55
2021/01/01 01:32:46;;;;;;;74.70;40.60;;;;;;;2.35;77.55;99922.59;5001388;28;20058;-54
2021/01/01 01:35:13;;;;;;;74.80;40.95;;;;;;;2.29;77.72;99928.81;4994752;28;20057;-53
2021/01/01 01:37:40;;;;;;;86.95;43.72;;;;;;;2.23;78.22;99934.25;5002450;28;20417;-57
2021/01/01 01:40:07;;;;;;;69.57;38.42;;;;;;;2.31;78.08;99931.38;5000666;28;20050;-58
2021/01/01 01:42:34;;;;;;;74.20;40.13;;;;;;;2.22;78.46;99937.75;5004950;28;20537;-56
2021/01/01 01:45:01;;;;;;;76.88;39.10;;;;;;;2.10;78.51;99938.19;5020606;28;20138;-55
2021/01/01 01:47:28;;;;;;;69.50;39.13;;;;;;;2.17;78.86;99933.63;5004119;28;20050;-57
2021/01/01 01:49:54;;;;;;;63.47;35.65;;;;;;;2.21;78.59;99933.47;4989723;28;20518;-57
2021/01/01 01:52:21;;;;;;;70.28;37.58;;;;;;;2.19;78.70;99929.22;5020461;28;20428;-56
2021/01/01 01:54:48;;;;;;;66.82;37.22;;;;;;;2.07;78.61;99933.09;5003648;28;20050;-53
2021/01/01 01:57:16;;;;;;;66.40;33.20;;;;;;;2.16;78.93;99934.50;5003894;28;20065;-57
2021/01/01 01:59:43;;;;;;;63.90;34.22;;;;;;;2.16;79.00;99935.38;5005084;28;20045;-55
2021/01/01 02:02:10;;;;;;;65.25;33.72;;;;;;;2.17;78.93;99939.66;5005665;28;20533;-57
2021/01/01 02:04:37;;;;;;;55.72;31.33;;;;;;;2.18;78.84;99943.09;4969927;28;20050;-54
2021/01/01 02:07:04;;;;;;;61.13;31.48;;;;;;;2.13;79.57;99945.03;4987998;28;20058;-56
2021/01/01 02:09:31;;;;;;;55.70;30.02;;;;;;;2.19;78.75;99942.19;5003285;28;20050;-55
2021/01/01 02:11:58;;;;;;;54.95;30.60;;;;;;;2.17;78.87;99938.81;5004937;28;20057;-56
2021/01/01 02:14:25;;;;;;;56.88;30.08;;;;;;;2.19;79.02;99943.03;4978522;28;20046;-52
2021/01/01 02:16:51;;;;;;;49.70;29.98;;;;;;;2.13;79.44;99948.47;5020340;28;20057;-51
2021/01/01 02:19:18;;;;;;;51.67;28.65;;;;;;;2.05;79.77;99947.03;5001055;28;20054;-58
2021/01/01 02:21:47;;;;;;;56.38;30.00;;;;;;;2.16;79.18;99950.09;5007197;28;20063;-55
2021/01/01 02:24:14;;;;;;;55.67;29.52;;;;;;;2.04;79.27;99946.19;5001232;28;20077;-55
2021/01/01 02:26:41;;;;;;;54.80;29.83;;;;;;;1.99;80.10;99948.09;5003851;28;20048;-53
2021/01/01 02:29:07;;;;;;;62.15;32.10;;;;;;;2.00;79.91;99942.84;5006308;28;20038;-56
2021/01/01 02:31:34;;;;;;;54.08;30.27;;;;;;;2.07;79.91;99951.25;5001120;28;20636;-55
2021/01/01 02:34:01;;;;;;;52.35;30.25;;;;;;;2.06;79.56;99948.72;5002780;28;20053;-54
2021/01/01 02:36:28;;;;;;;57.13;31.95;;;;;;;2.07;79.69;99953.00;4990532;28;20649;-56
2021/01/01 02:39:05;;;;;;;52.50;29.73;;;;;;;2.07;79.81;99953.84;5005375;28;20046;-52
2021/01/01 02:41:32;;;;;;;53.63;29.27;;;;;;;2.00;80.27;99949.78;4981522;28;20530;-57
2021/01/01 02:43:59;;;;;;;59.03;31.23;;;;;;;2.05;79.93;99944.44;4999256;28;20082;-50
2021/01/01 02:46:26;;;;;;;57.30;30.90;;;;;;;2.06;79.39;99951.31;4987892;28;20145;-56
2021/01/01 02:48:53;;;;;;;54.63;30.52;;;;;;;2.00;79.48;99937.66;5004700;28;20061;-52
2021/01/01 02:51:20;;;;;;;54.15;29.98;;;;;;;2.02;80.16;99950.56;5003848;28;20046;-53
2021/01/01 02:53:46;;;;;;;49.85;29.10;;;;;;;1.94;79.96;99950.00;4999186;28;20052;-53
2021/01/01 02:56:16;;;;;;;54.47;29.75;;;;;;;1.92;80.44;99944.84;5006347;28;20166;-57
2021/01/01 02:58:43;;;;;;;49.72;28.15;;;;;;;2.03;80.26;99947.94;5001299;28;20530;-55
2021/01/01 03:01:10;;;;;;;51.90;30.45;;;;;;;2.15;79.64;99946.66;5005521;28;20141;-55
2021/01/01 03:03:37;;;;;;;50.42;28.40;;;;;;;2.20;79.76;99943.88;5006686;28;20072;-53
2021/01/01 03:06:03;;;;;;;53.13;29.38;;;;;;;2.07;79.87;99940.03;4997732;28;20061;-55
2021/01/01 03:08:31;;;;;;;51.50;29.02;;;;;;;2.15;79.85;99945.81;4998848;28;20045;-52
2021/01/01 03:10:58;;;;;;;49.88;28.25;;;;;;;2.24;79.53;99941.13;5006902;28;20060;-55
2021/01/01 03:13:24;;;;;;;52.92;29.15;;;;;;;2.16;79.59;99950.97;4976707;28;20061;-55
2021/01/01 03:18:30;;;;;;;50.50;27.80;;;;;;;2.24;79.69;99943.72;4963223;28;20059;-56
2021/01/01 03:20:56;;;;;;;47.92;28.10;;;;;;;2.30;79.44;99940.09;4982111;28;20071;-56
2021/01/01 03:23:23;;;;;;;49.05;27.65;;;;;;;2.25;79.60;99939.38;4966593;28;20657;-59
2021/01/01 03:25:50;;;;;;;45.47;26.30;;;;;;;2.24;79.38;99940.28;4970079;28;20063;-59
2021/01/01 03:28:16;;;;;;;47.25;27.23;;;;;;;2.20;79.68;99942.13;4986416;28;20058;-55
2021/01/01 03:30:43;;;;;;;45.58;26.88;;;;;;;2.11;79.60;99939.88;4989803;28;20062;-56
2021/01/01 03:33:10;;;;;;;43.47;26.58;;;;;;;2.19;79.67;99937.00;4979938;28;20047;-56
2021/01/01 03:35:36;;;;;;;53.00;28.67;;;;;;;2.26;81.23;99941.09;4980635;28;20133;-56
2021/01/01 03:38:03;;;;;;;47.72;27.55;;;;;;;2.20;79.70;99938.69;4979321;28;20058;-57
2021/01/01 03:40:29;;;;;;;45.78;25.88;;;;;;;2.13;80.32;99939.84;4986102;28;20073;-58
2021/01/01 03:42:56;;;;;;;45.67;25.55;;;;;;;2.11;79.95;99934.66;4984042;28;20450;-55
2021/01/01 03:45:23;;;;;;;49.88;27.27;;;;;;;2.15;79.80;99933.66;4986112;28;20038;-60
2021/01/01 03:47:50;;;;;;;45.28;25.50;;;;;;;2.26;79.46;99931.56;4982138;28;20042;-58
2021/01/01 03:50:16;;;;;;;48.75;26.00;;;;;;;2.27;79.49;99929.78;4982156;28;20133;-58
2021/01/01 03:52:43;;;;;;;44.58;25.55;;;;;;;2.24;78.79;99919.50;4977925;28;20054;-60
2021/01/01 03:55:10;;;;;;;48.53;26.35;;;;;;;2.16;79.59;99924.13;4977672;28;20058;-55
2021/01/01 03:57:36;;;;;;;46.13;26.65;;;;;;;2.28;79.60;99936.69;4997899;28;20058;-57
2021/01/01 04:00:05;;;;;;;49.97;28.08;;;;;;;2.20;79.50;99923.13;4977459;28;20055;-60
2021/01/01 04:02:33;;;;;;;54.60;30.27;;;;;;;2.23;79.89;99917.81;4980000;28;20057;-56
2021/01/01 04:04:59;;;;;;;49.15;30.08;;;;;;;2.22;79.59;99916.13;4975773;28;20164;-61
2021/01/01 04:07:26;;;;;;;53.58;30.63;;;;;;;2.15;79.54;99923.28;4981199;28;20133;-54
2021/01/01 04:09:53;;;;;;;54.78;32.25;;;;;;;2.28;79.65;99924.53;4982532;28;20426;-56
2021/01/01 04:12:19;;;;;;;55.15;29.48;;;;;;;2.26;79.61;99918.56;4986268;28;20134;-57
2021/01/01 04:14:46;;;;;;;47.05;27.50;;;;;;;2.20;79.94;99923.13;4979590;28;20059;-59
2021/01/01 04:17:13;;;;;;;53.13;28.90;;;;;;;2.14;79.59;99919.00;4975392;28;20062;-56
2021/01/01 04:19:40;;;;;;;50.25;27.77;;;;;;;2.20;80.40;99915.31;4980835;28;20050;-58
2021/01/01 04:22:06;;;;;;;51.15;29.77;;;;;;;2.22;79.82;99922.16;4980233;28;20047;-59
2021/01/01 04:24:33;;;;;;;48.08;25.98;;;;;;;2.16;79.81;99922.41;4983742;28;20645;-57
2021/01/01 04:27:00;;;;;;;46.05;26.60;;;;;;;2.32;80.79;99920.09;4984457;28;20160;-57
2021/01/01 04:29:27;;;;;;;45.13;25.25;;;;;;;2.48;79.58;99917.78;4985639;28;20463;-54
2021/01/01 04:31:53;;;;;;;45.78;24.85;;;;;;;2.38;79.22;99914.66;4986525;28;20054;-58
2021/01/01 04:34:20;;;;;;;46.85;24.40;;;;;;;2.37;79.16;99915.56;4985141;28;20074;-59
2021/01/01 04:36:47;;;;;;;42.17;24.60;;;;;;;2.24;79.46;99924.69;4985371;28;20062;-60
2021/01/01 04:39:13;;;;;;;42.88;24.50;;;;;;;2.26;79.61;99923.75;4982454;28;20407;-58
2021/01/01 04:41:41;;;;;;;47.38;25.10;;;;;;;2.18;80.04;99924.94;5002370;28;20165;-58
2021/01/01 04:44:08;;;;;;;40.20;24.15;;;;;;;2.20;79.89;99929.16;4985741;28;20054;-59
2021/01/01 04:46:38;;;;;;;42.17;24.17;;;;;;;2.18;80.12;99938.75;4979019;28;20050;-60
2021/01/01 04:49:05;;;;;;;36.28;23.63;;;;;;;2.21;79.85;99932.63;4979121;28;20503;-56
2021/01/01 04:51:32;;;;;;;43.38;24.52;;;;;;;2.06;79.93;99936.59;4990008;28;20058;-60
2021/01/01 04:54:02;;;;;;;40.05;22.98;;;;;;;2.08;80.30;99932.19;4988093;28;20423;-60
2021/01/01 04:56:28;;;;;;;41.88;23.67;;;;;;;2.07;80.61;99933.09;4983043;28;20488;-60
2021/01/01 04:58:55;;;;;;;45.38;24.63;;;;;;;2.07;80.71;99930.50;4985930;28;20066;-59
2021/01/01 05:01:23;;;;;;;43.42;24.25;;;;;;;2.13;80.61;99926.84;4989603;28;20054;-59
2021/01/01 05:03:50;;;;;;;41.40;23.38;;;;;;;2.17;80.43;99931.88;4990466;28;20054;-57
2021/01/01 05:06:29;;;;;;;42.70;24.48;;;;;;;2.15;80.71;99941.44;4988279;28;20051;-57
2021/01/01 05:08:58;;;;;;;44.13;22.77;;;;;;;2.09;80.60;99940.84;4976159;28;20081;-58
2021/01/01 05:11:25;;;;;;;38.88;23.35;;;;;;;2.11;80.88;99947.66;4989911;28;20062;-56
2021/01/01 05:13:57;;;;;;;40.30;23.70;;;;;;;2.15;81.46;99940.59;4987520;28;20330;-57
2021/01/01 05:16:23;;;;;;;39.75;23.50;;;;;;;2.08;81.98;99950.38;4987565;28;20074;-57
2021/01/01 05:18:51;;;;;;;40.20;23.45;;;;;;;2.05;81.45;99947.03;4983217;28;20054;-56
2021/01/01 05:21:28;;;;;;;39.50;23.73;;;;;;;2.11;81.04;99945.06;4983892;28;20065;-58
2021/01/01 05:23:56;;;;;;;38.67;22.58;;;;;;;2.00;81.04;99947.19;4986677;28;20087;-60
2021/01/01 05:26:27;;;;;;;40.30;22.45;;;;;;;1.98;81.29;99951.56;4980567;28;20054;-58
2021/01/01 05:29:02;;;;;;;39.58;22.42;;;;;;;1.93;82.00;99961.28;4978431;28;20062;-56
2021/01/01 05:31:31;;;;;;;43.15;23.60;;;;;;;1.81;82.04;99943.53;4987879;28;20055;-57
2021/01/01 05:34:06;;;;;;;41.60;23.88;;;;;;;1.92;82.89;99941.41;4984140;28;20067;-57
2021/01/01 05:36:42;;;;;;;47.38;25.10;;;;;;;2.03;81.25;99953.13;4986231;28;20138;-56
2021/01/01 05:39:17;;;;;;;42.22;23.05;;;;;;;1.95;81.55;99949.09;4980819;28;20051;-56
2021/01/01 05:41:45;;;;;;;38.97;23.00;;;;;;;1.89;81.70;99951.88;4981921;28;20477;-57
2021/01/01 05:44:19;;;;;;;36.28;21.13;;;;;;;1.97;81.59;99955.91;4979754;28;20056;-56
2021/01/01 05:46:56;;;;;;;38.47;22.52;;;;;;;1.85;82.30;99951.16;4979903;28;20050;-55
2021/01/01 05:49:31;;;;;;;43.30;23.92;;;;;;;2.02;82.14;99960.97;4971399;28;20053;-58
2021/01/01 05:52:21;;;;;;;45.08;23.08;;;;;;;1.93;81.96;99951.72;4975092;28;20059;-59
2021/01/01 05:54:49;;;;;;;36.85;20.65;;;;;;;1.88;82.58;99961.44;4983795;28;20061;-58
2021/01/01 05:57:17;;;;;;;38.78;22.48;;;;;;;1.91;82.02;99958.75;4967617;28;20047;-55
2021/01/01 05:59:48;;;;;;;42.92;22.42;;;;;;;1.99;82.03;99959.34;4974423;28;20063;-58
2021/01/01 06:02:15;;;;;;;42.33;23.05;;;;;;;1.83;82.46;99965.09;4982780;28;20419;-58
2021/01/01 06:04:42;;;;;;;42.13;22.77;;;;;;;1.85;82.29;99969.34;4986895;28;20505;-56
2021/01/01 06:07:10;;;;;;;41.40;23.10;;;;;;;1.81;82.91;99970.34;4978730;28;20051;-59
2021/01/01 06:09:38;;;;;;;37.88;22.08;;;;;;;1.81;82.65;99970.34;4993826;28;20086;-58
2021/01/01 06:12:11;;;;;;;40.28;23.65;;;;;;;1.82;82.33;99978.97;4986926;28;20046;-54
2021/01/01 06:14:40;;;;;;;41.67;25.10;;;;;;;1.75;82.33;99973.13;4983772;28;20059;-56
2021/01/01 06:17:10;;;;;;;46.28;24.75;;;;;;;1.83;82.41;99980.66;4983686;28;20053;-59
2021/01/01 06:19:50;;;;;;;40.85;24.27;;;;;;;1.72;82.38;99978.44;4978499;28;20054;-56
2021/01/01 06:22:27;;;;;;;44.10;24.05;;;;;;;1.64;83.15;99990.81;4982262;28;20150;-59
2021/01/01 06:24:56;;;;;;;40.92;23.75;;;;;;;1.62;83.50;99984.78;4987946;28;20057;-58
2021/01/01 06:27:25;;;;;;;44.60;24.45;;;;;;;1.73;83.53;99985.31;4976839;28;20117;-59
2021/01/01 06:30:12;;;;;;;39.72;23.00;;;;;;;1.79;83.27;99992.88;4973150;28;20055;-55
2021/01/01 06:32:39;;;;;;;42.60;24.25;;;;;;;1.54;83.54;99986.81;4984561;28;20054;-59
2021/01/01 06:35:12;;;;;;;45.65;24.80;;;;;;;1.52;84.69;99997.22;4991509;28;20515;-59
2021/01/01 06:37:40;;;;;;;44.90;24.45;;;;;;;1.53;85.04;99996.31;4988032;28;20072;-59
2021/01/01 06:40:33;;;;;;;39.80;24.30;;;;;;;1.55;85.55;99994.53;4972341;28;20055;-56
2021/01/01 06:43:04;;;;;;;45.70;25.27;;;;;;;1.52;86.09;99999.81;4983222;28;20051;-60
2021/01/01 06:45:40;;;;;;;46.15;24.15;;;;;;;1.53;86.71;100001.50;4988782;28;20545;-58
2021/01/01 06:48:17;;;;;;;43.30;25.33;;;;;;;1.59;86.58;99997.88;4976838;28;20050;-56
2021/01/01 06:50:44;;;;;;;46.00;25.40;;;;;;;1.65;86.61;100008.91;4986654;28;20504;-59
2021/01/01 06:53:16;;;;;;;45.97;25.48;;;;;;;1.58;87.16;100006.56;5002621;28;20137;-55
2021/01/01 06:55:47;;;;;;;42.70;24.00;;;;;;;1.57;87.70;100008.28;4985625;28;20057;-61
2021/01/01 06:58:24;;;;;;;47.08;25.83;;;;;;;1.46;87.74;100007.81;4978824;28;20160;-56
2021/01/01 07:00:51;;;;;;;50.75;28.45;;;;;;;1.42;88.30;100009.63;4987676;28;20547;-57
2021/01/01 07:03:24;;;;;;;46.42;26.00;;;;;;;1.31;88.86;100014.31;4981050;28;20046;-55
2021/01/01 07:05:50;;;;;;;47.45;27.25;;;;;;;1.23;89.56;100011.09;4977959;28;20070;-56
2021/01/01 07:08:38;;;;;;;44.53;26.58;;;;;;;1.22;89.16;100019.78;4981969;28;20057;-58
2021/01/01 07:11:06;;;;;;;55.05;27.75;;;;;;;1.17;89.75;100022.53;4983378;28;20054;-55
2021/01/01 07:13:45;;;;;;;50.67;28.60;;;;;;;1.23;90.18;100019.72;4983458;28;20444;-57
2021/01/01 07:16:13;;;;;;;47.75;28.23;;;;;;;1.11;90.38;100027.03;4985968;28;20427;-58
2021/01/01 07:18:40;;;;;;;50.55;27.95;;;;;;;1.22;90.51;100019.78;4974772;28;20051;-58
2021/01/01 07:21:12;;;;;;;46.65;25.83;;;;;;;1.27;90.14;100023.94;4987596;28;20053;-59
2021/01/01 07:23:38;;;;;;;55.17;27.80;;;;;;;1.24;90.61;100030.94;4981610;28;20151;-58
2021/01/01 07:26:05;;;;;;;47.67;26.83;;;;;;;1.30;90.30;100032.50;4987431;28;20500;-60
2021/01/01 07:28:38;;;;;;;50.55;30.30;;;;;;;1.04;91.14;100038.44;4984689;28;20042;-59
2021/01/01 07:31:05;;;;;;;52.50;27.38;;;;;;;1.15;91.16;100039.00;4979671;28;20423;-61
2021/01/01 07:33:33;;;;;;;54.60;29.45;;;;;;;1.17;91.21;100044.97;4985350;28;20050;-61
2021/01/01 07:36:05;;;;;;;49.85;26.95;;;;;;;1.24;90.77;100042.16;4988454;28;20065;-53
2021/01/01 07:38:34;;;;;;;47.53;26.63;;;;;;;1.22;91.01;100043.13;4982675;28;20050;-60
2021/01/01 07:41:01;;;;;;;54.70;26.77;;;;;;;1.24;91.11;100046.50;4988014;28;20058;-55
2021/01/01 07:43:28;;;;;;;50.92;28.30;;;;;;;1.14;91.34;100042.50;4988022;28;20081;-55
2021/01/01 07:46:00;;;;;;;52.83;29.67;;;;;;;1.22;91.31;100043.97;5000999;28;20078;-61
2021/01/01 07:48:26;;;;;;;52.90;28.15;;;;;;;1.21;91.33;100052.63;4986486;28;20065;-54
2021/01/01 07:50:58;;;;;;;55.42;28.05;;;;;;;1.21;91.32;100047.44;4987680;28;20054;-56
2021/01/01 07:53:25;;;;;;;56.97;29.52;;;;;;;1.28;91.37;100045.53;4987751;28;20149;-58
2021/01/01 07:55:51;;;;;;;50.30;28.15;;;;;;;1.36;91.02;100050.47;4989794;28;20063;-59
2021/01/01 07:58:18;;;;;;;53.33;27.70;;;;;;;1.33;91.18;100051.41;4994194;28;20046;-59
2021/01/01 08:00:47;;;;;;;45.63;27.75;;;;;;;1.36;90.85;100048.75;4990658;28;20076;-57
2021/01/01 08:03:14;;;;;;;56.65;30.35;;;;;;;1.41;90.66;100049.44;4983721;28;20061;-56
2021/01/01 08:05:47;;;;;;;51.38;27.15;;;;;;;1.52;90.77;100057.72;4978387;28;20050;-60
2021/01/01 08:08:20;;;;;;;54.88;28.50;;;;;;;1.48;90.43;100050.09;4981263;28;20692;-59
2021/01/01 08:10:47;;;;;;;48.05;27.10;;;;;;;1.40;90.70;100059.88;4985177;28;20058;-56
2021/01/01 08:13:15;;;;;;;52.47;28.65;;;;;;;1.48;90.78;100057.88;4984590;28;20337;-56
2021/01/01 08:15:42;;;;;;;51.28;27.65;;;;;;;1.56;90.63;100060.22;4987279;28;20057;-60
2021/01/01 08:18:10;;;;;;;50.20;27.17;;;;;;;1.62;89.68;100060.03;4976997;28;20074;-58
2021/01/01 08:20:37;;;;;;;44.80;25.20;;;;;;;1.75;90.08;100058.75;4987802;28;20503;-57
2021/01/01 08:23:10;;;;;;;48.05;27.90;;;;;;;1.73;90.14;100057.97;4986650;28;20058;-54
2021/01/01 08:25:37;;;;;;;54.47;28.67;;;;;;;1.47;91.71;100061.38;4991607;28;20538;-56
2021/01/01 08:28:06;;;;;;;45.85;27.17;;;;;;;1.45;92.03;100063.16;4997319;28;20043;-59
2021/01/01 08:30:35;;;;;;;46.90;26.10;;;;;;;1.60;91.76;100060.09;4984152;28;20046;-58
2021/01/01 08:33:02;;;;;;;52.67;29.02;;;;;;;1.52;92.38;100062.06;4980324;28;20050;-57
2021/01/01 08:35:29;;;;;;;55.25;28.70;;;;;;;1.44;92.78;100064.91;4967732;28;20047;-59
2021/01/01 08:37:56;;;;;;;49.53;26.83;;;;;;;1.48;92.80;100063.91;4981145;28;20047;-57
2021/01/01 08:40:23;;;;;;;48.65;27.48;;;;;;;1.69;91.65;100069.34;4980121;28;20411;-60
2021/01/01 08:42:54;;;;;;;49.20;28.95;;;;;;;1.63;92.41;100072.97;4984722;28;20062;-59
2021/01/01 08:45:30;;;;;;;51.35;27.13;;;;;;;1.71;91.65;100075.31;4983912;28;20431;-54
2021/01/01 08:48:07;;;;;;;50.72;27.55;;;;;;;1.39;93.06;100082.34;4984588;28;20050;-56
2021/01/01 08:50:34;;;;;;;48.28;28.48;;;;;;;1.44;93.56;100083.06;4985453;28;20081;-59
2021/01/01 08:53:02;;;;;;;49.88;28.25;;;;;;;1.73;92.27;100083.91;4980202;28;20137;-55
2021/01/01 08:55:30;;;;;;;49.20;27.13;;;;;;;1.75;92.25;100082.94;4993002;28;20054;-57
2021/01/01 08:58:17;;;;;;;48.33;24.67;;;;;;;1.81;91.82;100092.31;4987390;28;20042;-58
2021/01/01 09:00:45;;;;;;;47.58;27.92;;;;;;;1.94;91.21;100093.63;4985832;28;20046;-55
2021/01/01 09:03:13;;;;;;;54.50;27.90;;;;;;;1.55;92.38;100094.88;4987651;28;20046;-58
2021/01/01 09:05:39;;;;;;;47.28;26.58;;;;;;;1.59;92.99;100101.66;4986628;28;20061;-56
2021/01/01 09:08:16;;;;;;;44.30;24.77;;;;;;;1.82;92.61;100091.41;4985269;28;20074;-55
2021/01/01 09:10:44;;;;;;;42.58;25.17;;;;;;;1.88;92.06;100098.16;4980137;28;20080;-57
2021/01/01 09:13:18;;;;;;;46.40;26.77;;;;;;;1.84;92.22;100097.38;4984132;28;20058;-56
2021/01/01 09:15:46;;;;;;;45.78;26.50;;;;;;;2.21;91.61;100101.41;4979518;28;20054;-61
2021/01/01 09:18:13;;;;;;;46.60;26.13;;;;;;;2.36;90.52;100105.25;5013838;22;20076;-58
2021/01/01 09:20:42;;;;;;;44.10;25.65;;;;;;;2.31;90.27;100112.34;4994708;28;20068;-53
2021/01/01 09:23:10;;;;;;;47.67;27.15;;;;;;;2.50;89.75;100103.03;5022798;28;20049;-57
2021/01/01 09:25:38;;;;;;;49.38;25.58;;;;;;;2.35;90.13;100108.75;5028489;28;20137;-54
2021/01/01 09:28:05;;;;;;;43.40;24.90;;;;;;;2.51;89.81;100112.50;4996860;28;20046;-54
2021/01/01 09:30:33;;;;;;;42.35;24.65;;;;;;;2.53;89.98;100114.16;4992248;28;20098;-57
2021/01/01 09:33:01;;;;;;;41.55;23.65;;;;;;;2.32;90.65;100114.03;5005072;28;20081;-58
2021/01/01 09:35:30;;;;;;;43.60;25.30;;;;;;;2.29;90.90;100112.38;5003742;28;20041;-58
2021/01/01 09:37:59;;;;;;;44.38;25.65;;;;;;;2.50;90.75;100111.66;4989914;28;20661;-57
2021/01/01 09:40:28;;;;;;;42.30;25.48;;;;;;;2.53;90.49;100110.72;5009710;28;20402;-52
2021/01/01 09:42:56;;;;;;;42.47;24.95;;;;;;;2.29;91.03;100112.38;5005729;28;20058;-55
2021/01/01 09:45:33;;;;;;;48.25;27.23;;;;;;;2.37;91.30;100118.16;4995981;28;20053;-53
2021/01/01 09:48:00;;;;;;;48.95;25.38;;;;;;;2.68;90.66;100119.75;4998144;28;20451;-52
2021/01/01 09:50:27;;;;;;;44.33;24.95;;;;;;;2.45;91.29;100123.97;5007988;28;20054;-56
2021/01/01 09:52:54;;;;;;;44.17;25.08;;;;;;;2.54;90.98;100122.81;5005541;28;20072;-53
2021/01/01 09:55:21;;;;;;;41.33;24.52;;;;;;;2.57;91.09;100124.44;5007694;28;20050;-54
2021/01/01 09:57:48;;;;;;;43.20;23.92;;;;;;;2.61;90.77;100123.44;5005411;28;20057;-55
2021/01/01 10:00:15;;;;;;;37.20;23.48;;;;;;;2.63;90.63;100125.09;4999498;28;20058;-55
2021/01/01 10:02:42;;;;;;;45.08;25.20;;;;;;;2.81;90.46;100121.00;5002489;28;20153;-52
2021/01/01 10:05:10;;;;;;;48.22;24.75;;;;;;;2.71;90.17;100124.84;4995160;28;20058;-58
2021/01/01 10:07:37;;;;;;;45.78;24.90;;;;;;;2.65;90.98;100122.44;5000953;28;20049;-56
2021/01/01 10:10:05;;;;;;;40.72;24.38;;;;;;;2.70;90.32;100118.78;5002972;28;20646;-54
2021/01/01 10:12:32;;;;;;;41.33;24.02;;;;;;;2.71;89.86;100122.25;5004159;28;20042;-56
2021/01/01 10:14:59;;;;;;;45.47;26.40;;;;;;;2.83;90.13;100124.38;5004959;28;20054;-54
2021/01/01 10:17:27;;;;;;;42.92;24.40;;;;;;;2.88;89.41;100129.44;4998209;28;20046;-53
2021/01/01 10:19:55;;;;;;;41.72;23.13;;;;;;;2.87;89.48;100123.38;4982412;28;20064;-55
2021/01/01 10:22:22;;;;;;;44.53;24.83;;;;;;;2.97;89.51;100127.38;4995765;28;20061;-56
2021/01/01 10:24:49;;;;;;;38.20;24.83;;;;;;;2.88;89.95;100127.69;4990425;28;20159;-53
2021/01/01 10:27:16;;;;;;;43.90;24.40;;;;;;;2.89;90.30;100129.38;5006069;28;20057;-56
2021/01/01 10:29:43;;;;;;;46.85;24.92;;;;;;;2.98;89.34;100123.88;4994350;28;20058;-53
2021/01/01 10:32:10;;;;;;;42.00;24.42;;;;;;;3.01;89.92;100130.69;5006798;28;20056;-57
2021/01/01 10:34:38;;;;;;;42.47;25.40;;;;;;;2.82;90.78;100135.69;5002205;28;20046;-55
2021/01/01 10:37:05;;;;;;;47.17;25.55;;;;;;;2.71;91.51;100130.88;5007507;28;20667;-55
2021/01/01 10:39:31;;;;;;;43.92;24.85;;;;;;;2.82;91.01;100130.50;5004792;28;20533;-54
2021/01/01 10:41:58;;;;;;;44.70;24.70;;;;;;;2.73;91.24;100128.22;5006564;28;20054;-55
2021/01/01 10:44:25;;;;;;;43.95;26.67;;;;;;;2.85;91.28;100129.56;5002842;28;20098;-53
2021/01/01 10:46:52;;;;;;;40.33;23.63;;;;;;;3.00;90.23;100129.84;5004956;28;21383;-54
2021/01/01 10:49:22;;;;;;;44.45;25.52;;;;;;;3.04;89.47;100128.84;4999134;28;20057;-53
2021/01/01 10:51:49;;;;;;;42.38;24.23;;;;;;;3.05;89.75;100125.31;5005582;28;20050;-55
2021/01/01 10:54:16;;;;;;;43.00;24.77;;;;;;;3.07;89.65;100127.88;5002444;28;20054;-51
2021/01/01 10:56:48;;;;;;;42.60;24.80;;;;;;;2.98;90.82;100126.47;5004757;28;20053;-54
2021/01/01 10:59:35;;;;;;;43.40;23.98;;;;;;;2.96;91.15;100130.84;5001923;28;20053;-55
2021/01/01 11:02:02;;;;;;;45.03;26.02;;;;;;;2.61;92.34;100123.44;4998612;28;20630;-54
2021/01/01 11:04:29;;;;;;;43.63;26.33;;;;;;;2.62;92.94;100128.59;5003427;28;20495;-51
2021/01/01 11:06:56;;;;;;;42.78;25.50;;;;;;;2.61;92.69;100123.44;4989682;28;20077;-53
2021/01/01 11:09:24;;;;;;;45.92;25.98;;;;;;;2.72;93.06;100118.72;4999815;28;20076;-56
2021/01/01 11:11:54;;;;;;;49.75;24.85;;;;;;;2.93;91.83;100123.19;5004408;28;20060;-54
2021/01/01 11:14:46;;;;;;;43.60;25.83;;;;;;;2.85;91.97;100120.00;5005426;28;20061;-56
2021/01/01 12:21:44;;;;;;;31.60;19.27;;;;;;;3.52;88.71;100117.53;4982021;28;20470;-55
2021/01/01 12:26:40;;;;;;;29.88;16.42;;;;;;;3.32;89.85;100119.19;4983697;28;20124;-56
2021/01/01 12:29:06;;;;;;;27.60;17.30;;;;;;;3.37;88.88;100125.06;5007834;28;20398;-55
2021/01/01 12:31:33;;;;;;;29.30;16.98;;;;;;;3.32;90.01;100125.22;4989140;28;20065;-56
2021/01/01 12:34:00;;;;;;;28.77;17.08;;;;;;;3.40;89.11;100123.19;5000155;28;20068;-55
2021/01/01 12:36:27;;;;;;;29.00;16.92;;;;;;;3.37;89.30;100127.66;5008533;28;20054;-54
2021/01/01 12:38:53;;;;;;;31.08;17.02;;;;;;;3.30;89.25;100119.25;4990904;28;20578;-56